Time;durP1;ratioP1;P1;durP2;ratioP2;P2;SDS_P1;SDS_P2;PMS_P1;PMS_P2;Temp;Humidity;BMP_temperature;BMP_pressure;BME280_temperature;BME280_humidity;BME280_pressure;Samples;Min_cycle;Max_cycle;Signal;HPM_P1;HPM_P2
2023/10/13 00:02:39;;;;;;;13.00;7.60;;;;;;;17.87;73.21;99075.77;234519;214;138493;-63
2023/10/13 00:07:42;;;;;;;13.80;7.70;;;;;;;17.90;73.17;99076.49;234530;214;148540;-61
2023/10/13 00:12:49;;;;;;;13.50;7.60;;;;;;;17.90;73.15;99084.61;234450;215;139633;-62
2023/10/13 00:17:52;;;;;;;20.70;8.40;;;;;;;17.88;73.34;99082.88;234705;214;138450;-63
2023/10/13 00:22:57;;;;;;;13.70;7.80;;;;;;;17.84;73.53;99082.27;234557;214;147574;-67
2023/10/13 00:28:01;;;;;;;15.60;7.40;;;;;;;17.82;73.63;99083.16;234455;214;141358;-64
2023/10/13 00:33:04;;;;;;;14.80;7.90;;;;;;;17.79;73.75;99082.91;234529;214;138707;-67
2023/10/13 00:38:13;;;;;;;15.40;8.60;;;;;;;17.80;73.82;99081.20;234618;214;148322;-60
2023/10/13 00:48:32;;;;;;;16.60;8.30;;;;;;;17.81;73.85;99080.04;234513;215;137429;-64
2023/10/13 00:53:39;;;;;;;15.50;7.80;;;;;;;17.81;73.93;99078.64;234335;214;149221;-61
2023/10/13 00:58:43;;;;;;;16.90;8.00;;;;;;;17.79;73.90;99078.23;234392;215;138695;-66
2023/10/13 01:03:55;;;;;;;14.10;8.40;;;;;;;17.80;73.88;99074.22;234561;215;137996;-69
2023/10/13 01:09:26;;;;;;;17.50;8.10;;;;;;;17.83;73.85;99068.36;234596;215;147324;-66
2023/10/13 01:14:32;;;;;;;16.10;8.00;;;;;;;17.88;73.57;99063.82;234368;215;138781;-70
2023/10/13 01:19:42;;;;;;;14.80;7.50;;;;;;;17.89;73.66;99055.97;234337;214;137511;-67
2023/10/13 01:24:46;;;;;;;14.90;7.80;;;;;;;17.87;73.84;99048.08;234417;215;147345;-66
2023/10/13 01:29:50;;;;;;;18.20;7.40;;;;;;;17.79;73.72;99045.05;234431;215;138718;-69
2023/10/13 01:34:57;;;;;;;15.50;7.20;;;;;;;17.69;73.96;99042.55;234468;215;138337;-68
2023/10/13 01:40:01;;;;;;;16.60;7.80;;;;;;;17.63;74.00;99042.55;234345;215;289238;-66
2023/10/13 01:45:07;;;;;;;15.40;8.40;;;;;;;17.57;73.93;99039.11;234510;214;138863;-67
2023/10/13 01:50:19;;;;;;;14.00;7.20;;;;;;;17.46;73.92;99046.93;234409;215;138153;-68
2023/10/13 01:55:22;;;;;;;20.00;8.30;;;;;;;17.33;74.29;99049.89;234515;214;147642;-66
2023/10/13 02:00:26;;;;;;;19.00;7.60;;;;;;;17.27;74.62;99049.92;234499;214;139513;-66
2023/10/13 02:05:35;;;;;;;12.10;7.00;;;;;;;17.21;74.86;99056.34;234564;214;138033;-61
2023/10/13 02:10:43;;;;;;;18.40;8.10;;;;;;;17.23;75.02;99045.41;234396;215;147736;-62
2023/10/13 02:15:48;;;;;;;17.40;8.10;;;;;;;17.27;74.87;99041.32;234320;215;139335;-62
2023/10/13 02:20:55;;;;;;;16.00;7.50;;;;;;;17.23;74.87;99042.20;234488;214;140820;-64
2023/10/13 02:26:11;;;;;;;14.50;7.70;;;;;;;17.14;74.92;99040.83;234377;215;147513;-62
2023/10/13 02:31:14;;;;;;;15.80;7.10;;;;;;;17.06;75.01;99040.29;234286;215;139848;-64
2023/10/13 02:36:36;;;;;;;19.20;7.60;;;;;;;17.00;75.05;99037.08;234438;214;137511;-63
2023/10/13 02:41:41;;;;;;;17.90;7.90;;;;;;;16.99;75.17;99036.98;234498;214;148880;-60
2023/10/13 02:46:44;;;;;;;15.80;7.50;;;;;;;16.96;75.17;99031.33;234255;215;138772;-62
2023/10/13 02:51:47;;;;;;;12.00;7.30;;;;;;;16.92;75.21;99030.61;234439;215;139672;-66
2023/10/13 02:56:57;;;;;;;15.70;7.80;;;;;;;16.86;75.19;99031.67;234522;215;148043;-64
2023/10/13 03:02:07;;;;;;;15.50;7.50;;;;;;;16.79;75.20;99031.24;234396;214;276979;-62
2023/10/13 03:07:10;;;;;;;13.50;7.30;;;;;;;16.68;75.18;99040.17;234408;215;138004;-61
2023/10/13 03:12:13;;;;;;;17.20;8.00;;;;;;;16.65;75.33;99043.00;234386;215;148373;-62
2023/10/13 03:17:18;;;;;;;15.80;8.60;;;;;;;16.64;75.27;99039.00;234360;215;139280;-63
2023/10/13 03:22:30;;;;;;;14.10;7.80;;;;;;;16.55;75.39;99041.02;234369;215;137553;-65
2023/10/13 03:32:56;;;;;;;18.60;7.60;;;;;;;16.47;75.51;99053.85;234354;215;139591;-62
2023/10/13 03:37:59;;;;;;;17.50;8.00;;;;;;;16.45;75.99;99052.61;234490;215;138719;-66
2023/10/13 03:43:09;;;;;;;16.60;9.40;;;;;;;16.51;76.41;99055.84;234618;214;148238;-65
2023/10/13 03:53:34;;;;;;;14.90;9.20;;;;;;;16.62;76.33;99059.33;234413;215;137005;-59
2023/10/13 03:58:48;;;;;;;14.20;9.60;;;;;;;16.65;76.36;99052.14;234538;214;147462;-62
2023/10/13 04:04:02;;;;;;;16.10;8.70;;;;;;;16.62;76.41;99053.84;234487;215;138799;-60
2023/10/13 04:25:38;;;;;;;14.90;10.00;;;;;;;16.66;76.48;99056.68;234719;214;138647;-62
2023/10/13 04:41:22;;;;;;;67.60;54.10;;;;;;;16.54;76.58;99052.15;234689;215;138320;-64
2023/10/13 04:46:35;;;;;;;20.40;11.20;;;;;;;16.61;76.58;99062.38;234522;215;148200;-70
2023/10/13 05:45:36;;;;;;;14.10;9.30;;;;;;;16.63;76.74;99116.64;234510;214;137676;-62
2023/10/13 05:51:32;;;;;;;21.90;10.10;;;;;;;16.68;76.61;99118.91;234540;214;147508;-64
2023/10/13 06:28:43;;;;;;;21.20;11.30;;;;;;;16.78;76.47;99122.34;234437;215;139169;-68
2023/10/13 06:33:47;;;;;;;24.70;11.60;;;;;;;16.84;76.48;99130.66;234659;214;137419;-68
2023/10/13 06:39:20;;;;;;;25.40;11.70;;;;;;;16.84;76.44;99131.85;234404;214;147558;-67
2023/10/13 06:44:22;;;;;;;35.90;11.70;;;;;;;16.82;76.45;99130.23;234456;214;140013;-66
2023/10/13 06:49:29;;;;;;;27.00;12.50;;;;;;;16.86;76.80;99141.70;234461;214;139179;-69
2023/10/13 06:54:35;;;;;;;32.30;15.20;;;;;;;16.99;77.08;99147.92;234479;212;148335;-66
2023/10/13 06:59:41;;;;;;;30.20;13.60;;;;;;;17.08;76.54;99143.92;234317;215;139858;-64
2023/10/13 07:04:44;;;;;;;37.70;20.30;;;;;;;17.08;76.46;99143.55;234511;214;138135;-65
2023/10/13 07:09:58;;;;;;;31.40;18.90;;;;;;;17.09;76.29;99140.09;234471;215;147675;-66
2023/10/13 07:15:19;;;;;;;30.30;16.40;;;;;;;17.10;76.32;99136.79;234480;215;138959;-63
2023/10/13 07:25:32;;;;;;;19.10;11.20;;;;;;;17.29;76.59;99133.69;234438;215;148819;-62
2023/10/13 07:30:49;;;;;;;20.40;8.90;;;;;;;17.41;76.35;99141.23;234282;214;138912;-68
2023/10/13 07:36:15;;;;;;;38.00;24.70;;;;;;;17.50;76.06;99139.67;234428;214;137871;-65
2023/10/13 07:41:22;;;;;;;27.60;12.30;;;;;;;17.55;75.99;99143.71;234462;215;147822;-64
2023/10/13 07:46:31;;;;;;;13.50;6.80;;;;;;;17.69;76.16;99141.72;234627;214;139257;-66
2023/10/13 07:51:44;;;;;;;15.20;6.70;;;;;;;17.85;75.89;99142.89;234476;214;137589;-62
2023/10/13 07:56:48;;;;;;;18.60;7.80;;;;;;;17.98;75.82;99144.33;234564;214;148915;-62
2023/10/13 08:02:12;;;;;;;76.20;54.80;;;;;;;18.12;75.06;99142.70;234367;214;139921;-60
2023/10/13 08:07:27;;;;;;;15.00;7.60;;;;;;;18.20;74.30;99143.61;234543;214;137143;-61
2023/10/13 08:12:31;;;;;;;15.30;6.50;;;;;;;18.20;73.78;99138.23;234376;215;148177;-62
2023/10/13 08:17:34;;;;;;;19.00;6.80;;;;;;;18.21;73.95;99133.29;234363;215;139534;-66
2023/10/13 08:22:38;;;;;;;15.50;6.50;;;;;;;18.29;74.10;99127.17;234558;214;137662;-66
2023/10/13 08:33:24;;;;;;;16.00;5.90;;;;;;;18.65;73.58;99121.33;234540;214;138843;-66
2023/10/13 08:38:34;;;;;;;17.00;8.10;;;;;;;18.84;73.12;99120.40;234583;214;137035;-66
2023/10/13 08:43:50;;;;;;;31.20;21.50;;;;;;;19.05;73.34;99120.07;234538;214;147443;-62
2023/10/13 08:54:45;;;;;;;18.00;6.40;;;;;;;19.30;72.49;99122.64;234473;214;137094;-67
2023/10/13 08:59:53;;;;;;;12.30;6.00;;;;;;;19.43;72.24;99122.13;234704;214;147455;-59
2023/10/13 09:04:59;;;;;;;14.50;5.80;;;;;;;19.56;71.94;99120.84;234351;215;139541;-62
2023/10/13 09:10:11;;;;;;;51.90;38.20;;;;;;;19.73;71.30;99119.34;234396;215;138572;-62
2023/10/13 09:21:16;;;;;;;18.80;6.90;;;;;;;20.05;70.07;99122.08;234365;214;140262;-65
2023/10/13 09:25:53;;;;;;;16.30;5.70;;;;;;;20.19;69.30;99126.52;234270;214;136994;-64
2023/10/13 09:30:57;;;;;;;9.80;4.80;;;;;;;20.24;67.97;99121.11;234233;215;148914;-63
2023/10/13 09:36:00;;;;;;;10.10;5.30;;;;;;;20.27;67.21;99109.11;234410;214;144420;-63
2023/10/13 09:41:21;;;;;;;10.10;5.00;;;;;;;20.27;67.04;99100.23;234362;214;136955;-63
2023/10/13 09:46:29;;;;;;;8.40;5.30;;;;;;;20.32;66.85;99100.44;234410;215;148107;-63
2023/10/13 09:51:33;;;;;;;9.10;4.90;;;;;;;20.45;66.37;99099.51;234342;215;138688;-62
2023/10/13 09:56:51;;;;;;;9.40;4.60;;;;;;;20.51;65.14;99096.94;234511;214;137306;-65
2023/10/13 10:01:58;;;;;;;125.10;98.60;;;;;;;20.53;64.53;99093.45;234346;214;147715;-66
2023/10/13 10:07:02;;;;;;;13.10;6.10;;;;;;;20.58;64.80;99089.73;234405;214;139766;-65
2023/10/13 10:12:05;;;;;;;11.00;5.30;;;;;;;20.69;64.66;99081.39;234383;214;136913;-64
2023/10/13 10:17:09;;;;;;;11.90;5.70;;;;;;;20.76;64.31;99082.69;234195;215;148551;-64
2023/10/13 10:22:20;;;;;;;10.90;5.20;;;;;;;20.81;63.74;99078.36;234232;214;140757;-61
2023/10/13 10:27:33;;;;;;;12.50;5.30;;;;;;;20.76;62.97;99068.77;234308;215;138024;-62
2023/10/13 10:32:40;;;;;;;10.60;6.60;;;;;;;20.79;63.34;99065.91;234185;215;147930;-67
2023/10/13 12:51:21;;;;;;;7.20;3.90;;;;;;;22.60;55.23;98955.81;234102;216;137011;-67
2023/10/13 12:56:28;;;;;;;8.80;3.80;;;;;;;22.60;55.47;98953.81;234238;217;143778;-68
2023/10/13 13:01:34;;;;;;;7.00;4.20;;;;;;;22.64;55.43;98944.66;234223;215;138671;-67
2023/10/13 13:06:39;;;;;;;4.70;3.20;;;;;;;22.71;55.21;98939.23;234223;216;136532;-70
2023/10/13 13:11:43;;;;;;;11.30;6.80;;;;;;;22.75;55.25;98933.50;234264;217;145664;-69
2023/10/13 13:16:48;;;;;;;10.30;3.30;;;;;;;22.82;55.35;98927.20;234171;217;139557;-69
2023/10/13 13:21:51;;;;;;;8.30;3.50;;;;;;;22.90;55.27;98923.98;234243;216;136581;-68
2023/10/13 13:26:54;;;;;;;7.30;3.60;;;;;;;22.89;55.24;98924.93;234140;216;143966;-69
2023/10/13 13:32:00;;;;;;;8.40;3.30;;;;;;;22.90;55.41;98924.70;234207;214;140327;-68
2023/10/13 13:37:03;;;;;;;6.50;3.50;;;;;;;22.87;55.40;98924.27;234220;216;137228;-68
2023/10/13 13:42:07;;;;;;;6.60;3.30;;;;;;;22.83;55.32;98917.54;234163;216;146430;-67
2023/10/13 13:47:13;;;;;;;8.80;4.10;;;;;;;22.79;55.77;98905.00;234204;217;138986;-68
2023/10/13 13:52:21;;;;;;;5.90;3.60;;;;;;;22.79;55.86;98903.91;234150;218;136504;-67
2023/10/13 13:57:24;;;;;;;5.90;3.20;;;;;;;22.80;56.05;98892.93;234203;217;146263;-68
2023/10/13 14:02:28;;;;;;;8.40;3.70;;;;;;;22.80;55.99;98891.97;234128;217;139548;-69
2023/10/13 14:07:32;;;;;;;7.30;3.50;;;;;;;22.77;55.95;98889.10;234285;217;139402;-68
2023/10/13 14:12:43;;;;;;;7.20;3.50;;;;;;;22.71;55.69;98889.84;234079;218;145657;-69
2023/10/13 14:17:49;;;;;;;7.40;4.00;;;;;;;22.65;55.73;98881.63;234184;218;138754;-68
2023/10/13 14:22:52;;;;;;;7.50;3.90;;;;;;;22.61;55.85;98877.78;234184;217;137211;-68
2023/10/13 14:27:58;;;;;;;7.60;3.90;;;;;;;22.60;56.47;98877.55;234201;215;146414;-69
2023/10/13 14:33:02;;;;;;;6.90;3.50;;;;;;;22.60;56.64;98868.96;234187;217;140290;-65
2023/10/13 14:38:06;;;;;;;6.50;3.30;;;;;;;22.57;56.74;98871.34;234080;217;136549;-66
2023/10/13 14:43:10;;;;;;;9.60;3.80;;;;;;;22.55;56.82;98877.56;234191;210;145751;-62
2023/10/13 14:48:14;;;;;;;5.80;3.80;;;;;;;22.54;57.13;98869.74;234182;217;139743;-68
2023/10/13 14:53:21;;;;;;;8.40;3.80;;;;;;;22.54;57.20;98864.03;234100;217;136961;-69
2023/10/13 14:58:26;;;;;;;6.50;3.50;;;;;;;22.56;57.46;98861.66;234180;217;145664;-67
2023/10/13 15:03:32;;;;;;;8.10;3.70;;;;;;;22.57;57.37;98865.05;234149;216;140504;-69
2023/10/13 15:08:35;;;;;;;9.20;3.80;;;;;;;22.55;57.47;98874.48;234311;216;136495;-65
2023/10/13 15:13:40;;;;;;;6.60;3.70;;;;;;;22.55;57.53;98876.23;234230;216;146593;-66
2023/10/13 15:18:51;;;;;;;9.80;4.20;;;;;;;22.54;57.60;98866.73;233893;216;139899;-68
2023/10/13 15:23:59;;;;;;;6.90;3.80;;;;;;;22.53;57.71;98866.19;234114;216;138074;-62
2023/10/13 15:29:09;;;;;;;9.10;4.10;;;;;;;22.48;58.00;98860.25;234118;216;146544;-64
2023/10/13 15:34:15;;;;;;;10.00;4.10;;;;;;;22.44;58.06;98855.13;234078;216;140566;-69
2023/10/13 15:39:39;;;;;;;8.40;3.60;;;;;;;22.41;58.32;98853.33;234282;215;136999;31
2023/10/13 15:44:45;;;;;;;7.70;4.20;;;;;;;22.31;59.11;98843.23;233922;218;147729;-65
2023/10/13 15:49:48;;;;;;;5.60;3.60;;;;;;;22.20;59.54;98839.02;233807;218;140298;-69
2023/10/13 15:54:56;;;;;;;8.10;3.90;;;;;;;22.10;59.88;98841.13;233962;218;139829;-62
2023/10/13 16:00:00;;;;;;;7.30;4.10;;;;;;;22.02;60.03;98840.89;234014;218;145709;-66
2023/10/13 16:05:16;;;;;;;7.40;4.20;;;;;;;21.95;60.33;98836.10;234105;218;138927;-61
2023/10/13 16:10:22;;;;;;;10.00;4.10;;;;;;;21.92;60.60;98832.34;234006;217;136654;-63
2023/10/13 16:15:25;;;;;;;7.80;4.20;;;;;;;21.91;60.63;98834.86;234013;218;148370;-63
2023/10/13 16:20:28;;;;;;;77.10;64.60;;;;;;;21.90;60.68;98829.27;234003;218;138804;-67
2023/10/13 16:25:32;;;;;;;15.80;9.70;;;;;;;21.88;60.91;98838.66;233950;218;136826;-63
2023/10/13 16:30:37;;;;;;;10.90;5.70;;;;;;;21.85;61.17;98835.75;234022;218;145540;-63
2023/10/13 16:35:45;;;;;;;8.60;4.20;;;;;;;21.81;61.24;98833.73;233847;218;138846;-64
2023/10/13 16:40:51;;;;;;;57.30;51.20;;;;;;;21.78;61.65;98832.07;233887;217;137663;-66
2023/10/13 16:45:55;;;;;;;14.40;8.10;;;;;;;21.81;61.59;98831.40;234116;217;145706;-65
2023/10/13 16:50:59;;;;;;;10.00;4.20;;;;;;;21.88;61.42;98826.53;233949;217;138713;-65
2023/10/13 16:56:03;;;;;;;7.50;5.20;;;;;;;21.93;61.39;98825.80;234029;217;137357;-65
2023/10/13 17:03:17;;;;;;;10.50;5.10;;;;;;;21.85;61.62;98824.23;232210;223;724749;-68
2023/10/13 17:08:21;;;;;;;259.70;231.00;;;;;;;21.73;61.72;98825.55;233566;220;137030;-67
2023/10/13 17:13:25;;;;;;;58.60;46.60;;;;;;;21.61;62.53;98817.10;234119;216;144844;-68
2023/10/13 17:18:28;;;;;;;12.20;6.50;;;;;;;21.42;63.20;98820.08;234108;217;140877;-67
2023/10/13 17:23:34;;;;;;;8.50;5.40;;;;;;;21.23;63.68;98811.90;234193;217;136546;-69
2023/10/13 17:28:38;;;;;;;70.10;62.50;;;;;;;21.07;64.09;98813.85;234126;216;143646;-64
2023/10/13 17:33:42;;;;;;;24.50;19.70;;;;;;;20.99;64.17;98810.33;234112;217;138888;-69
2023/10/13 17:38:46;;;;;;;11.70;4.90;;;;;;;20.96;64.41;98801.87;233827;217;137854;-68
2023/10/13 17:43:49;;;;;;;12.40;4.80;;;;;;;20.96;64.22;98802.28;234098;217;143649;-68
2023/10/13 17:48:55;;;;;;;50.60;44.10;;;;;;;21.00;64.07;98800.52;234135;217;138891;-66
2023/10/13 17:53:59;;;;;;;30.60;23.30;;;;;;;20.98;64.10;98800.01;234218;216;137508;-70
2023/10/13 17:59:04;;;;;;;13.20;6.50;;;;;;;20.97;63.95;98799.20;234163;215;146530;-66
2023/10/13 18:04:09;;;;;;;26.30;17.20;;;;;;;20.97;63.90;98793.78;234132;215;138468;-69
2023/10/13 18:09:17;;;;;;;8.10;4.80;;;;;;;20.88;64.10;98788.86;234165;216;136845;-66
2023/10/13 18:14:20;;;;;;;10.80;5.30;;;;;;;20.72;64.43;98787.76;234231;216;145934;-67
2023/10/13 18:19:27;;;;;;;12.20;4.90;;;;;;;20.54;64.88;98787.54;234196;216;138941;-66
2023/10/13 18:24:30;;;;;;;12.10;5.30;;;;;;;20.38;65.38;98783.98;234098;216;137392;-67
2023/10/13 18:29:34;;;;;;;10.60;4.80;;;;;;;20.23;65.70;98784.17;234088;216;145804;-71
2023/10/13 18:34:42;;;;;;;12.20;4.80;;;;;;;20.10;66.22;98780.27;234154;216;140358;-66
2023/10/13 18:39:47;;;;;;;12.50;5.30;;;;;;;20.03;66.65;98776.34;234153;214;137878;-68
2023/10/13 18:44:56;;;;;;;17.90;5.90;;;;;;;19.95;66.71;98771.09;234116;216;146416;-68
2023/10/13 18:50:00;;;;;;;12.70;5.30;;;;;;;19.89;67.02;98764.90;234046;216;139562;-70
2023/10/13 18:55:05;;;;;;;12.40;6.00;;;;;;;19.79;67.41;98762.13;234183;208;136266;-66
2023/10/13 19:00:14;;;;;;;14.30;5.60;;;;;;;19.68;67.88;98756.62;234139;215;146057;-70
2023/10/13 19:05:17;;;;;;;16.60;6.20;;;;;;;19.58;68.25;98752.89;234255;215;138816;-68
2023/10/13 19:10:21;;;;;;;10.30;5.20;;;;;;;19.46;68.41;98757.91;234177;215;138170;-66
2023/10/13 19:15:26;;;;;;;13.10;5.30;;;;;;;19.38;68.72;98753.23;234071;216;147296;-68
2023/10/13 19:20:30;;;;;;;14.20;5.10;;;;;;;19.34;68.99;98754.28;234089;216;138919;-69
2023/10/13 19:25:34;;;;;;;10.20;5.40;;;;;;;19.29;68.95;98758.84;234019;215;137226;-66
2023/10/13 19:30:43;;;;;;;12.90;5.60;;;;;;;19.23;69.38;98756.36;234177;214;145921;-69
2023/10/13 19:35:47;;;;;;;14.90;5.90;;;;;;;19.14;69.55;98755.27;234100;215;139238;-68
2023/10/13 19:46:36;;;;;;;19.10;6.00;;;;;;;18.99;70.30;98758.06;232180;223;723597;-69
2023/10/13 19:51:43;;;;;;;14.90;6.10;;;;;;;18.89;70.52;98758.17;233638;219;140224;-69
2023/10/13 19:56:47;;;;;;;10.70;6.00;;;;;;;18.87;70.87;98748.88;233658;219;146527;-72
2023/10/13 20:01:51;;;;;;;12.80;7.30;;;;;;;18.85;71.07;98744.62;233552;218;141049;-65
2023/10/13 20:06:55;;;;;;;11.50;5.70;;;;;;;18.85;71.27;98745.84;233767;217;138069;-69
2023/10/13 20:12:00;;;;;;;14.90;6.50;;;;;;;18.82;71.35;98748.48;233621;219;144041;-71
2023/10/13 20:17:05;;;;;;;12.50;6.20;;;;;;;18.78;71.51;98745.73;234361;214;141070;-69
2023/10/13 20:22:10;;;;;;;12.50;6.10;;;;;;;18.72;71.84;98741.93;234461;214;139670;-68
2023/10/13 20:27:13;;;;;;;12.50;6.20;;;;;;;18.70;71.93;98736.42;234495;212;143734;-73
2023/10/13 20:32:17;;;;;;;14.80;6.80;;;;;;;18.70;72.19;98731.89;234404;207;139754;-68
2023/10/13 20:37:20;;;;;;;16.80;6.40;;;;;;;18.72;72.13;98729.03;234276;208;137752;-66
2023/10/13 20:42:24;;;;;;;15.20;6.70;;;;;;;18.74;72.29;98724.31;234042;215;147687;-65
2023/10/13 20:47:27;;;;;;;14.70;7.00;;;;;;;18.79;72.43;98716.97;234090;215;138921;-65
2023/10/13 20:52:30;;;;;;;13.30;7.50;;;;;;;18.79;72.45;98713.20;234208;215;137443;-64
2023/10/13 20:57:34;;;;;;;12.20;6.30;;;;;;;18.77;72.70;98712.39;234114;215;146581;-67
2023/10/13 21:02:40;;;;;;;11.80;6.60;;;;;;;18.78;72.69;98705.73;234429;213;139105;-65
2023/10/13 21:07:46;;;;;;;13.00;7.00;;;;;;;18.82;72.90;98704.99;234419;215;137759;-64
2023/10/13 21:12:51;;;;;;;12.60;6.80;;;;;;;18.84;72.88;98695.95;234318;213;146997;-64
2023/10/13 21:17:54;;;;;;;14.00;6.80;;;;;;;18.87;73.04;98684.16;234388;215;139144;-65
2023/10/13 21:22:58;;;;;;;14.50;6.90;;;;;;;18.83;72.78;98685.34;234541;215;136348;-66
2023/10/13 21:28:01;;;;;;;12.10;6.80;;;;;;;18.80;72.91;98683.80;234333;213;146453;-66
2023/10/13 21:33:07;;;;;;;13.70;5.80;;;;;;;18.80;72.97;98678.99;234267;215;140484;-65
2023/10/13 21:38:14;;;;;;;15.00;6.50;;;;;;;18.80;73.04;98680.60;234267;215;138345;-65
2023/10/13 21:43:17;;;;;;;11.20;6.30;;;;;;;18.79;72.87;98675.52;234270;215;147785;-64
2023/10/13 21:48:21;;;;;;;16.60;7.30;;;;;;;18.74;72.78;98667.69;234166;215;138700;-64
2023/10/13 21:53:25;;;;;;;11.70;6.50;;;;;;;18.69;72.63;98662.60;234157;215;136415;-64
2023/10/13 21:58:28;;;;;;;11.70;5.90;;;;;;;18.59;72.69;98659.47;234264;215;145756;-63
2023/10/13 22:03:34;;;;;;;12.10;5.80;;;;;;;18.49;72.85;98655.34;234151;215;139324;-66
2023/10/13 22:08:38;;;;;;;13.00;6.20;;;;;;;18.41;72.79;98646.35;234162;215;139129;-65
2023/10/13 22:13:41;;;;;;;16.30;6.20;;;;;;;18.35;72.77;98638.89;234152;215;145870;-66
2023/10/13 22:18:48;;;;;;;11.40;6.00;;;;;;;18.27;73.10;98639.52;234249;215;139028;-64
2023/10/13 22:23:52;;;;;;;10.60;6.30;;;;;;;18.25;73.20;98633.47;234285;215;137129;-63
2023/10/13 22:28:55;;;;;;;12.40;6.20;;;;;;;18.19;73.12;98634.09;234126;215;145892;-65
2023/10/13 22:33:58;;;;;;;15.70;6.50;;;;;;;18.06;73.17;98629.75;234273;215;139512;-66
2023/10/13 22:39:04;;;;;;;14.00;6.30;;;;;;;17.92;73.39;98629.95;234213;215;137086;-63
2023/10/13 22:44:07;;;;;;;9.20;5.50;;;;;;;17.86;73.66;98624.65;234215;215;145857;-63
2023/10/13 22:49:14;;;;;;;9.20;5.90;;;;;;;17.87;73.60;98622.39;234131;215;139252;-63
2023/10/13 22:54:20;;;;;;;9.70;5.60;;;;;;;17.87;73.38;98613.70;234241;210;140464;-63
2023/10/13 22:59:24;;;;;;;14.20;6.30;;;;;;;17.81;73.42;98607.88;234266;215;147353;-66
2023/10/13 23:04:27;;;;;;;12.00;6.10;;;;;;;17.73;73.60;98603.03;234229;215;141529;-65
2023/10/13 23:09:31;;;;;;;11.10;6.50;;;;;;;17.64;73.56;98601.45;234167;215;136955;-66
2023/10/13 23:14:34;;;;;;;10.60;5.60;;;;;;;17.53;73.61;98596.40;234159;216;145823;-64
2023/10/13 23:19:38;;;;;;;11.80;5.70;;;;;;;17.44;73.89;98592.05;234167;215;138954;-64
2023/10/13 23:24:41;;;;;;;9.50;6.00;;;;;;;17.41;73.96;98592.42;234260;215;139655;-64
2023/10/13 23:29:44;;;;;;;10.20;6.00;;;;;;;17.33;74.05;98587.81;234169;215;145770;-65
2023/10/13 23:34:47;;;;;;;12.90;6.00;;;;;;;17.27;74.15;98583.19;234204;215;138894;-65
2023/10/13 23:39:52;;;;;;;10.40;5.80;;;;;;;17.24;74.24;98573.45;234160;215;137780;-64
2023/10/13 23:45:06;;;;;;;9.30;5.40;;;;;;;17.20;74.28;98560.02;234228;215;148284;-63
2023/10/13 23:50:16;;;;;;;11.80;5.40;;;;;;;17.14;74.42;98548.89;234218;214;138704;-66
2023/10/13 23:55:19;;;;;;;13.10;5.90;;;;;;;17.13;74.36;98543.15;234181;212;137818;-64
